sensor_id;sensor_type;location;lat;lon;timestamp;temperature;humidity
41965;DHT22;50120;53.250;8.702;2022-09-21T00:00:25;6.90;99.90
41965;DHT22;50120;53.250;8.702;2022-09-21T00:02:54;6.90;99.90
41965;DHT22;50120;53.250;8.702;2022-09-21T00:05:21;6.90;99.90
41965;DHT22;50120;53.250;8.702;2022-09-21T00:07:47;6.80;99.90
41965;DHT22;50120;53.250;8.702;2022-09-21T00:10:13;6.80;99.90
41965;DHT22;50120;53.250;8.702;2022-09-21T00:12:39;6.80;99.90
41965;DHT22;50120;53.250;8.702;2022-09-21T00:15:09;6.80;99.90
41965;DHT22;50120;53.250;8.702;2022-09-21T00:17:36;6.70;99.90
41965;DHT22;50120;53.250;8.702;2022-09-21T00:20:03;6.70;99.90
41965;DHT22;50120;53.250;8.702;2022-09-21T00:22:33;6.70;99.90
41965;DHT22;50120;53.250;8.702;2022-09-21T00:24:59;6.70;99.90
41965;DHT22;50120;53.250;8.702;2022-09-21T00:27:29;6.70;99.90
41965;DHT22;50120;53.250;8.702;2022-09-21T00:29:56;6.60;99.90
41965;DHT22;50120;53.250;8.702;2022-09-21T00:32:22;6.60;99.90
41965;DHT22;50120;53.250;8.702;2022-09-21T00:34:50;6.60;99.90
41965;DHT22;50120;53.250;8.702;2022-09-21T00:37:17;6.60;99.90
41965;DHT22;50120;53.250;8.702;2022-09-21T00:39:43;6.50;99.90
41965;DHT22;50120;53.250;8.702;2022-09-21T00:42:29;6.50;99.90
41965;DHT22;50120;53.250;8.702;2022-09-21T00:44:55;6.50;99.90
41965;DHT22;50120;53.250;8.702;2022-09-21T00:47:33;6.50;99.90
41965;DHT22;50120;53.250;8.702;2022-09-21T00:50:03;6.40;99.90
41965;DHT22;50120;53.250;8.702;2022-09-21T00:52:34;6.40;99.90
41965;DHT22;50120;53.250;8.702;2022-09-21T00:55:06;6.40;99.90
41965;DHT22;50120;53.250;8.702;2022-09-21T00:57:34;6.40;99.90
41965;DHT22;50120;53.250;8.702;2022-09-21T01:00:03;6.40;99.90
41965;DHT22;50120;53.250;8.702;2022-09-21T01:02:29;6.40;99.90
41965;DHT22;50120;53.250;8.702;2022-09-21T01:04:55;6.40;99.90
41965;DHT22;50120;53.250;8.702;2022-09-21T01:07:27;6.30;99.90
41965;DHT22;50120;53.250;8.702;2022-09-21T01:09:57;6.30;99.90
41965;DHT22;50120;53.250;8.702;2022-09-21T01:26:19;6.20;99.90
41965;DHT22;50120;53.250;8.702;2022-09-21T01:34:29;6.20;99.90
41965;DHT22;50120;53.250;8.702;2022-09-21T01:37:00;6.30;99.90
41965;DHT22;50120;53.250;8.702;2022-09-21T01:39:28;6.20;99.90
41965;DHT22;50120;53.250;8.702;2022-09-21T01:41:55;6.20;99.90
41965;DHT22;50120;53.250;8.702;2022-09-21T01:44:25;6.20;99.90
41965;DHT22;50120;53.250;8.702;2022-09-21T01:46:52;6.20;99.90
41965;DHT22;50120;53.250;8.702;2022-09-21T01:49:29;6.20;99.90
41965;DHT22;50120;53.250;8.702;2022-09-21T01:52:40;6.20;99.90
41965;DHT22;50120;53.250;8.702;2022-09-21T01:55:00;6.10;99.90
41965;DHT22;50120;53.250;8.702;2022-09-21T02:00:03;6.10;99.90
41965;DHT22;50120;53.250;8.702;2022-09-21T02:05:14;6.10;99.90
41965;DHT22;50120;53.250;8.702;2022-09-21T02:07:41;6.00;99.90
41965;DHT22;50120;53.250;8.702;2022-09-21T02:10:09;6.00;99.90
41965;DHT22;50120;53.250;8.702;2022-09-21T02:12:38;6.00;99.90
41965;DHT22;50120;53.250;8.702;2022-09-21T02:15:04;6.00;99.90
41965;DHT22;50120;53.250;8.702;2022-09-21T02:20:27;5.90;99.90
41965;DHT22;50120;53.250;8.702;2022-09-21T02:23:42;5.90;99.90
41965;DHT22;50120;53.250;8.702;2022-09-21T02:26:32;5.90;99.90
41965;DHT22;50120;53.250;8.702;2022-09-21T02:29:09;5.90;99.90
41965;DHT22;50120;53.250;8.702;2022-09-21T02:32:02;5.90;99.90
41965;DHT22;50120;53.250;8.702;2022-09-21T02:34:42;5.90;99.90
41965;DHT22;50120;53.250;8.702;2022-09-21T02:40:48;5.80;99.90
41965;DHT22;50120;53.250;8.702;2022-09-21T02:43:01;5.80;99.90
41965;DHT22;50120;53.250;8.702;2022-09-21T02:45:36;5.80;99.90
41965;DHT22;50120;53.250;8.702;2022-09-21T02:48:08;5.80;99.90
41965;DHT22;50120;53.250;8.702;2022-09-21T02:50:49;5.80;99.90
41965;DHT22;50120;53.250;8.702;2022-09-21T02:53:19;5.80;99.90
41965;DHT22;50120;53.250;8.702;2022-09-21T02:55:46;5.80;99.90
41965;DHT22;50120;53.250;8.702;2022-09-21T02:58:15;5.80;99.90
41965;DHT22;50120;53.250;8.702;2022-09-21T03:00:42;5.80;99.90
41965;DHT22;50120;53.250;8.702;2022-09-21T03:03:19;5.80;99.90
41965;DHT22;50120;53.250;8.702;2022-09-21T03:05:47;5.80;99.90
41965;DHT22;50120;53.250;8.702;2022-09-21T03:08:14;5.80;99.90
41965;DHT22;50120;53.250;8.702;2022-09-21T03:10:40;5.70;99.90
41965;DHT22;50120;53.250;8.702;2022-09-21T03:13:06;5.70;99.90
41965;DHT22;50120;53.250;8.702;2022-09-21T03:15:36;5.70;99.90
41965;DHT22;50120;53.250;8.702;2022-09-21T03:18:04;5.70;99.90
41965;DHT22;50120;53.250;8.702;2022-09-21T03:20:33;5.70;99.90
41965;DHT22;50120;53.250;8.702;2022-09-21T03:22:59;5.70;99.90
41965;DHT22;50120;53.250;8.702;2022-09-21T03:25:26;5.60;99.90
41965;DHT22;50120;53.250;8.702;2022-09-21T03:27:52;5.70;99.90
41965;DHT22;50120;53.250;8.702;2022-09-21T03:30:21;5.60;99.90
41965;DHT22;50120;53.250;8.702;2022-09-21T03:32:51;5.60;99.90
41965;DHT22;50120;53.250;8.702;2022-09-21T03:35:18;5.60;99.90
41965;DHT22;50120;53.250;8.702;2022-09-21T03:37:44;5.60;99.90
41965;DHT22;50120;53.250;8.702;2022-09-21T03:40:14;5.60;99.90
41965;DHT22;50120;53.250;8.702;2022-09-21T03:42:41;5.60;99.90
41965;DHT22;50120;53.250;8.702;2022-09-21T03:45:08;5.60;99.90
41965;DHT22;50120;53.250;8.702;2022-09-21T03:47:34;5.60;99.90
41965;DHT22;50120;53.250;8.702;2022-09-21T03:49:59;5.50;99.90
41965;DHT22;50120;53.250;8.702;2022-09-21T03:52:25;5.50;99.90
41965;DHT22;50120;53.250;8.702;2022-09-21T03:54:51;5.40;99.90
41965;DHT22;50120;53.250;8.702;2022-09-21T03:57:17;5.40;99.90
41965;DHT22;50120;53.250;8.702;2022-09-21T03:59:43;5.40;99.90
41965;DHT22;50120;53.250;8.702;2022-09-21T04:02:08;5.40;99.90
41965;DHT22;50120;53.250;8.702;2022-09-21T04:04:34;5.40;99.90
41965;DHT22;50120;53.250;8.702;2022-09-21T04:07:00;5.40;99.90
41965;DHT22;50120;53.250;8.702;2022-09-21T04:09:26;5.40;99.90
41965;DHT22;50120;53.250;8.702;2022-09-21T04:11:51;5.40;99.90
41965;DHT22;50120;53.250;8.702;2022-09-21T04:14:18;5.40;99.90
41965;DHT22;50120;53.250;8.702;2022-09-21T04:16:44;5.40;99.90
41965;DHT22;50120;53.250;8.702;2022-09-21T04:19:10;5.30;99.90
41965;DHT22;50120;53.250;8.702;2022-09-21T04:21:36;5.30;99.90
41965;DHT22;50120;53.250;8.702;2022-09-21T04:24:02;5.30;99.90
41965;DHT22;50120;53.250;8.702;2022-09-21T04:26:34;5.30;99.90
41965;DHT22;50120;53.250;8.702;2022-09-21T04:29:00;5.40;99.90
41965;DHT22;50120;53.250;8.702;2022-09-21T04:31:27;5.30;99.90
41965;DHT22;50120;53.250;8.702;2022-09-21T04:33:55;5.30;99.90
41965;DHT22;50120;53.250;8.702;2022-09-21T04:36:23;5.30;99.90
41965;DHT22;50120;53.250;8.702;2022-09-21T04:38:49;5.30;99.90
41965;DHT22;50120;53.250;8.702;2022-09-21T04:41:15;5.30;99.90
41965;DHT22;50120;53.250;8.702;2022-09-21T04:43:46;5.30;99.90
41965;DHT22;50120;53.250;8.702;2022-09-21T04:46:14;5.30;99.90
41965;DHT22;50120;53.250;8.702;2022-09-21T04:48:40;5.30;99.90
41965;DHT22;50120;53.250;8.702;2022-09-21T04:51:07;5.20;99.90
41965;DHT22;50120;53.250;8.702;2022-09-21T04:53:33;5.20;99.90
41965;DHT22;50120;53.250;8.702;2022-09-21T04:55:59;5.20;99.90
41965;DHT22;50120;53.250;8.702;2022-09-21T04:58:25;5.20;99.90
41965;DHT22;50120;53.250;8.702;2022-09-21T05:00:52;5.30;99.90
41965;DHT22;50120;53.250;8.702;2022-09-21T05:03:20;5.30;99.90
41965;DHT22;50120;53.250;8.702;2022-09-21T05:05:50;5.30;99.90
41965;DHT22;50120;53.250;8.702;2022-09-21T05:08:17;5.30;99.90
41965;DHT22;50120;53.250;8.702;2022-09-21T05:11:04;5.30;99.90
41965;DHT22;50120;53.250;8.702;2022-09-21T05:13:29;5.30;99.90
41965;DHT22;50120;53.250;8.702;2022-09-21T05:15:55;5.30;99.90
41965;DHT22;50120;53.250;8.702;2022-09-21T05:18:21;5.30;99.90
41965;DHT22;50120;53.250;8.702;2022-09-21T05:20:53;5.30;99.90
41965;DHT22;50120;53.250;8.702;2022-09-21T05:23:19;5.20;99.90
41965;DHT22;50120;53.250;8.702;2022-09-21T05:25:45;5.20;99.90
41965;DHT22;50120;53.250;8.702;2022-09-21T05:28:11;5.30;99.90
41965;DHT22;50120;53.250;8.702;2022-09-21T05:30:37;5.30;99.90
41965;DHT22;50120;53.250;8.702;2022-09-21T05:33:03;5.30;99.90
41965;DHT22;50120;53.250;8.702;2022-09-21T05:36:19;5.30;99.90
41965;DHT22;50120;53.250;8.702;2022-09-21T05:38:17;5.30;99.90
41965;DHT22;50120;53.250;8.702;2022-09-21T05:40:44;5.30;99.90
41965;DHT22;50120;53.250;8.702;2022-09-21T05:43:12;5.30;99.90
41965;DHT22;50120;53.250;8.702;2022-09-21T05:45:45;5.30;99.90
41965;DHT22;50120;53.250;8.702;2022-09-21T05:53:13;5.30;99.90
41965;DHT22;50120;53.250;8.702;2022-09-21T05:55:55;5.30;99.90
41965;DHT22;50120;53.250;8.702;2022-09-21T06:03:41;5.40;99.90
41965;DHT22;50120;53.250;8.702;2022-09-21T06:06:08;5.40;99.90
41965;DHT22;50120;53.250;8.702;2022-09-21T06:08:34;5.40;99.90
41965;DHT22;50120;53.250;8.702;2022-09-21T06:11:00;5.50;99.90
41965;DHT22;50120;53.250;8.702;2022-09-21T06:13:26;5.50;99.90
41965;DHT22;50120;53.250;8.702;2022-09-21T06:15:52;5.50;99.90
41965;DHT22;50120;53.250;8.702;2022-09-21T06:18:18;5.50;99.90
41965;DHT22;50120;53.250;8.702;2022-09-21T06:20:44;5.60;99.90
41965;DHT22;50120;53.250;8.702;2022-09-21T06:23:12;5.60;99.90
41965;DHT22;50120;53.250;8.702;2022-09-21T06:25:38;5.60;99.90
41965;DHT22;50120;53.250;8.702;2022-09-21T06:28:05;5.60;99.90
41965;DHT22;50120;53.250;8.702;2022-09-21T06:30:32;5.70;99.90
41965;DHT22;50120;53.250;8.702;2022-09-21T06:33:03;5.80;99.90
41965;DHT22;50120;53.250;8.702;2022-09-21T06:35:30;5.90;99.90
41965;DHT22;50120;53.250;8.702;2022-09-21T06:38:05;5.90;99.90
41965;DHT22;50120;53.250;8.702;2022-09-21T06:40:32;6.00;99.90
41965;DHT22;50120;53.250;8.702;2022-09-21T06:42:59;6.10;99.90
41965;DHT22;50120;53.250;8.702;2022-09-21T06:45:26;6.10;99.90
41965;DHT22;50120;53.250;8.702;2022-09-21T06:47:52;6.20;99.90
41965;DHT22;50120;53.250;8.702;2022-09-21T06:50:18;6.30;99.90
41965;DHT22;50120;53.250;8.702;2022-09-21T06:52:44;6.40;99.90
41965;DHT22;50120;53.250;8.702;2022-09-21T06:55:10;6.40;99.90
41965;DHT22;50120;53.250;8.702;2022-09-21T06:57:36;6.50;99.90
41965;DHT22;50120;53.250;8.702;2022-09-21T07:00:04;6.60;99.90
41965;DHT22;50120;53.250;8.702;2022-09-21T07:02:30;6.60;99.90
41965;DHT22;50120;53.250;8.702;2022-09-21T07:04:56;6.70;99.90
41965;DHT22;50120;53.250;8.702;2022-09-21T07:07:23;6.80;99.90
41965;DHT22;50120;53.250;8.702;2022-09-21T07:09:49;7.00;99.90
41965;DHT22;50120;53.250;8.702;2022-09-21T07:12:16;7.10;99.90
41965;DHT22;50120;53.250;8.702;2022-09-21T07:14:42;7.20;99.90
41965;DHT22;50120;53.250;8.702;2022-09-21T07:17:11;7.30;99.90
41965;DHT22;50120;53.250;8.702;2022-09-21T07:19:37;7.50;99.90
41965;DHT22;50120;53.250;8.702;2022-09-21T07:22:03;7.70;99.90
41965;DHT22;50120;53.250;8.702;2022-09-21T07:24:29;7.80;99.90
41965;DHT22;50120;53.250;8.702;2022-09-21T07:26:55;7.90;99.90
41965;DHT22;50120;53.250;8.702;2022-09-21T07:29:20;8.10;99.90
41965;DHT22;50120;53.250;8.702;2022-09-21T07:31:46;8.20;99.90
41965;DHT22;50120;53.250;8.702;2022-09-21T07:34:12;8.30;99.90
41965;DHT22;50120;53.250;8.702;2022-09-21T07:36:38;8.40;99.90
41965;DHT22;50120;53.250;8.702;2022-09-21T07:39:04;8.60;99.90
41965;DHT22;50120;53.250;8.702;2022-09-21T07:41:30;8.70;99.90
41965;DHT22;50120;53.250;8.702;2022-09-21T07:43:56;8.90;99.90
41965;DHT22;50120;53.250;8.702;2022-09-21T07:46:21;9.00;99.90
41965;DHT22;50120;53.250;8.702;2022-09-21T07:48:47;9.10;99.90
41965;DHT22;50120;53.250;8.702;2022-09-21T07:51:14;9.30;99.90
41965;DHT22;50120;53.250;8.702;2022-09-21T07:53:42;9.50;99.90
41965;DHT22;50120;53.250;8.702;2022-09-21T07:56:14;9.70;99.90
41965;DHT22;50120;53.250;8.702;2022-09-21T07:58:40;9.80;99.90
41965;DHT22;50120;53.250;8.702;2022-09-21T08:01:26;10.00;99.90
41965;DHT22;50120;53.250;8.702;2022-09-21T08:03:54;10.20;99.90
41965;DHT22;50120;53.250;8.702;2022-09-21T08:06:21;10.40;99.90
41965;DHT22;50120;53.250;8.702;2022-09-21T08:08:48;10.60;99.90
41965;DHT22;50120;53.250;8.702;2022-09-21T08:11:16;10.70;99.90
41965;DHT22;50120;53.250;8.702;2022-09-21T08:13:42;10.80;99.90
41965;DHT22;50120;53.250;8.702;2022-09-21T08:16:09;11.00;99.90
41965;DHT22;50120;53.250;8.702;2022-09-21T08:18:39;11.10;99.90
41965;DHT22;50120;53.250;8.702;2022-09-21T08:21:06;11.30;99.90
41965;DHT22;50120;53.250;8.702;2022-09-21T08:23:32;11.40;99.90
41965;DHT22;50120;53.250;8.702;2022-09-21T08:25:59;11.60;99.90
41965;DHT22;50120;53.250;8.702;2022-09-21T08:28:27;11.70;99.90
41965;DHT22;50120;53.250;8.702;2022-09-21T08:30:53;11.90;99.90
41965;DHT22;50120;53.250;8.702;2022-09-21T08:33:18;12.00;99.90
41965;DHT22;50120;53.250;8.702;2022-09-21T08:35:52;12.10;99.90
41965;DHT22;50120;53.250;8.702;2022-09-21T08:38:18;12.30;99.90
41965;DHT22;50120;53.250;8.702;2022-09-21T08:40:43;12.50;99.90
41965;DHT22;50120;53.250;8.702;2022-09-21T08:43:16;12.80;99.90
41965;DHT22;50120;53.250;8.702;2022-09-21T08:45:44;13.00;99.90
41965;DHT22;50120;53.250;8.702;2022-09-21T08:48:23;13.20;99.90
41965;DHT22;50120;53.250;8.702;2022-09-21T08:50:55;13.30;99.90
41965;DHT22;50120;53.250;8.702;2022-09-21T08:53:25;13.40;99.90
41965;DHT22;50120;53.250;8.702;2022-09-21T08:55:55;13.40;99.90
41965;DHT22;50120;53.250;8.702;2022-09-21T08:58:24;13.50;99.90
41965;DHT22;50120;53.250;8.702;2022-09-21T09:04:25;13.40;99.90
41965;DHT22;50120;53.250;8.702;2022-09-21T09:18:51;13.80;99.90
41965;DHT22;50120;53.250;8.702;2022-09-21T09:21:20;13.90;99.90
41965;DHT22;50120;53.250;8.702;2022-09-21T09:24:14;14.10;99.90
41965;DHT22;50120;53.250;8.702;2022-09-21T09:26:57;14.20;99.90
41965;DHT22;50120;53.250;8.702;2022-09-21T09:29:44;14.60;99.90
41965;DHT22;50120;53.250;8.702;2022-09-21T09:32:15;14.80;99.90
41965;DHT22;50120;53.250;8.702;2022-09-21T09:34:48;14.80;99.90
41965;DHT22;50120;53.250;8.702;2022-09-21T09:37:19;14.90;99.90
41965;DHT22;50120;53.250;8.702;2022-09-21T09:39:53;14.80;99.90
41965;DHT22;50120;53.250;8.702;2022-09-21T09:50:42;15.60;99.90
41965;DHT22;50120;53.250;8.702;2022-09-21T09:53:23;15.70;99.90
41965;DHT22;50120;53.250;8.702;2022-09-21T09:55:51;15.90;99.90
41965;DHT22;50120;53.250;8.702;2022-09-21T09:58:21;15.80;99.90
41965;DHT22;50120;53.250;8.702;2022-09-21T10:00:51;15.80;99.90
41965;DHT22;50120;53.250;8.702;2022-09-21T10:03:24;15.80;99.90
41965;DHT22;50120;53.250;8.702;2022-09-21T10:05:51;15.90;99.90
41965;DHT22;50120;53.250;8.702;2022-09-21T10:08:41;15.90;99.90
41965;DHT22;50120;53.250;8.702;2022-09-21T10:11:07;16.00;99.90
41965;DHT22;50120;53.250;8.702;2022-09-21T10:13:35;16.00;99.90
41965;DHT22;50120;53.250;8.702;2022-09-21T10:16:13;16.10;99.90
41965;DHT22;50120;53.250;8.702;2022-09-21T10:18:49;16.10;99.90
41965;DHT22;50120;53.250;8.702;2022-09-21T10:21:36;16.10;99.90
41965;DHT22;50120;53.250;8.702;2022-09-21T10:24:06;16.30;99.90
41965;DHT22;50120;53.250;8.702;2022-09-21T10:26:48;16.30;99.90
41965;DHT22;50120;53.250;8.702;2022-09-21T10:34:27;16.40;99.90
41965;DHT22;50120;53.250;8.702;2022-09-21T10:36:56;16.40;99.90
41965;DHT22;50120;53.250;8.702;2022-09-21T10:39:32;16.40;99.90
41965;DHT22;50120;53.250;8.702;2022-09-21T10:44:40;16.40;99.90
41965;DHT22;50120;53.250;8.702;2022-09-21T10:47:38;16.40;99.90
41965;DHT22;50120;53.250;8.702;2022-09-21T10:50:29;16.60;99.90
41965;DHT22;50120;53.250;8.702;2022-09-21T10:55:45;16.60;99.90
41965;DHT22;50120;53.250;8.702;2022-09-21T10:58:13;16.60;99.90
41965;DHT22;50120;53.250;8.702;2022-09-21T11:00:50;16.40;99.90
41965;DHT22;50120;53.250;8.702;2022-09-21T11:05:57;16.40;99.90
41965;DHT22;50120;53.250;8.702;2022-09-21T11:11:23;16.30;99.90
41965;DHT22;50120;53.250;8.702;2022-09-21T11:14:17;16.30;99.90
41965;DHT22;50120;53.250;8.702;2022-09-21T11:22:53;16.30;99.90
41965;DHT22;50120;53.250;8.702;2022-09-21T11:25:25;16.40;99.90
41965;DHT22;50120;53.250;8.702;2022-09-21T11:49:49;17.00;98.30
41965;DHT22;50120;53.250;8.702;2022-09-21T11:58:08;16.90;98.00
41965;DHT22;50120;53.250;8.702;2022-09-21T12:00:51;16.70;97.60
41965;DHT22;50120;53.250;8.702;2022-09-21T12:03:43;16.60;98.30
41965;DHT22;50120;53.250;8.702;2022-09-21T12:22:14;16.80;98.10
41965;DHT22;50120;53.250;8.702;2022-09-21T12:24:58;16.90;97.90
41965;DHT22;50120;53.250;8.702;2022-09-21T12:27:35;17.10;96.80
41965;DHT22;50120;53.250;8.702;2022-09-21T12:33:04;17.40;95.10
41965;DHT22;50120;53.250;8.702;2022-09-21T12:35:47;17.30;93.60
41965;DHT22;50120;53.250;8.702;2022-09-21T12:38:32;17.30;94.70
41965;DHT22;50120;53.250;8.702;2022-09-21T12:41:17;17.20;95.70
41965;DHT22;50120;53.250;8.702;2022-09-21T12:43:52;17.30;96.30
41965;DHT22;50120;53.250;8.702;2022-09-21T12:46:20;17.40;96.10
41965;DHT22;50120;53.250;8.702;2022-09-21T12:48:48;17.30;95.60
41965;DHT22;50120;53.250;8.702;2022-09-21T12:51:24;17.20;96.40
41965;DHT22;50120;53.250;8.702;2022-09-21T12:53:56;17.20;94.60
41965;DHT22;50120;53.250;8.702;2022-09-21T12:59:36;17.10;95.00
41965;DHT22;50120;53.250;8.702;2022-09-21T13:02:29;17.20;94.60
41965;DHT22;50120;53.250;8.702;2022-09-21T13:08:11;17.40;93.60
41965;DHT22;50120;53.250;8.702;2022-09-21T13:11:01;17.40;95.00
41965;DHT22;50120;53.250;8.702;2022-09-21T13:13:37;17.20;94.80
41965;DHT22;50120;53.250;8.702;2022-09-21T13:16:26;17.10;95.20
41965;DHT22;50120;53.250;8.702;2022-09-21T13:21:38;17.30;94.80
41965;DHT22;50120;53.250;8.702;2022-09-21T13:24:06;17.20;95.00
41965;DHT22;50120;53.250;8.702;2022-09-21T13:26:41;17.20;95.20
41965;DHT22;50120;53.250;8.702;2022-09-21T13:31:56;17.50;95.70
41965;DHT22;50120;53.250;8.702;2022-09-21T13:34:42;17.70;97.80
41965;DHT22;50120;53.250;8.702;2022-09-21T13:47:41;18.10;92.90
41965;DHT22;50120;53.250;8.702;2022-09-21T13:52:46;17.40;93.60
41965;DHT22;50120;53.250;8.702;2022-09-21T13:55:38;17.20;93.60
41965;DHT22;50120;53.250;8.702;2022-09-21T13:58:18;17.00;93.10
41965;DHT22;50120;53.250;8.702;2022-09-21T14:01:14;16.80;94.50
41965;DHT22;50120;53.250;8.702;2022-09-21T14:03:44;17.00;95.30
41965;DHT22;50120;53.250;8.702;2022-09-21T14:09:37;17.40;94.30
41965;DHT22;50120;53.250;8.702;2022-09-21T14:11:41;17.90;95.20
41965;DHT22;50120;53.250;8.702;2022-09-21T14:14:29;18.20;93.60
41965;DHT22;50120;53.250;8.702;2022-09-21T14:17:00;17.90;91.00
41965;DHT22;50120;53.250;8.702;2022-09-21T14:24:41;17.00;93.70
41965;DHT22;50120;53.250;8.702;2022-09-21T14:27:33;16.80;95.70
41965;DHT22;50120;53.250;8.702;2022-09-21T14:35:20;16.20;96.90
41965;DHT22;50120;53.250;8.702;2022-09-21T14:37:53;16.00;96.90
41965;DHT22;50120;53.250;8.702;2022-09-21T14:40:31;15.80;97.10
41965;DHT22;50120;53.250;8.702;2022-09-21T14:43:06;15.70;98.10
41965;DHT22;50120;53.250;8.702;2022-09-21T14:48:42;15.90;96.50
41965;DHT22;50120;53.250;8.702;2022-09-21T14:54:26;16.50;95.50
41965;DHT22;50120;53.250;8.702;2022-09-21T14:57:03;16.60;95.60
41965;DHT22;50120;53.250;8.702;2022-09-21T15:02:17;16.50;94.10
41965;DHT22;50120;53.250;8.702;2022-09-21T15:11:19;16.40;94.90
41965;DHT22;50120;53.250;8.702;2022-09-21T15:19:26;16.20;94.50
41965;DHT22;50120;53.250;8.702;2022-09-21T15:21:54;16.10;94.90
41965;DHT22;50120;53.250;8.702;2022-09-21T15:24:30;16.00;94.10
41965;DHT22;50120;53.250;8.702;2022-09-21T15:27:27;15.90;93.90
41965;DHT22;50120;53.250;8.702;2022-09-21T15:29:58;16.00;94.30
41965;DHT22;50120;53.250;8.702;2022-09-21T15:32:38;15.90;93.70
41965;DHT22;50120;53.250;8.702;2022-09-21T15:35:31;15.90;93.40
41965;DHT22;50120;53.250;8.702;2022-09-21T15:37:58;15.90;93.30
41965;DHT22;50120;53.250;8.702;2022-09-21T15:40:35;15.80;94.60
41965;DHT22;50120;53.250;8.702;2022-09-21T15:48:11;15.70;95.80
41965;DHT22;50120;53.250;8.702;2022-09-21T15:50:39;15.70;94.00
41965;DHT22;50120;53.250;8.702;2022-09-21T15:53:19;15.60;93.80
41965;DHT22;50120;53.250;8.702;2022-09-21T15:55:47;15.60;94.40
41965;DHT22;50120;53.250;8.702;2022-09-21T15:58:33;15.60;94.90
41965;DHT22;50120;53.250;8.702;2022-09-21T16:01:09;15.60;94.40
41965;DHT22;50120;53.250;8.702;2022-09-21T16:03:36;15.70;93.60
41965;DHT22;50120;53.250;8.702;2022-09-21T16:06:22;15.60;93.10
41965;DHT22;50120;53.250;8.702;2022-09-21T16:08:48;15.70;95.10
41965;DHT22;50120;53.250;8.702;2022-09-21T16:11:30;15.70;95.30
41965;DHT22;50120;53.250;8.702;2022-09-21T16:14:14;15.60;95.10
41965;DHT22;50120;53.250;8.702;2022-09-21T16:19:43;15.50;96.30
41965;DHT22;50120;53.250;8.702;2022-09-21T16:22:48;15.50;97.00
41965;DHT22;50120;53.250;8.702;2022-09-21T16:25:33;15.40;96.50
41965;DHT22;50120;53.250;8.702;2022-09-21T16:30:49;15.10;97.50
41965;DHT22;50120;53.250;8.702;2022-09-21T16:33:41;15.00;98.40
41965;DHT22;50120;53.250;8.702;2022-09-21T16:38:59;14.80;99.30
41965;DHT22;50120;53.250;8.702;2022-09-21T16:41:34;14.60;99.90
41965;DHT22;50120;53.250;8.702;2022-09-21T16:44:01;14.40;99.90
41965;DHT22;50120;53.250;8.702;2022-09-21T16:46:27;14.30;99.90
41965;DHT22;50120;53.250;8.702;2022-09-21T16:48:53;14.10;99.90
41965;DHT22;50120;53.250;8.702;2022-09-21T16:51:20;14.00;99.90
41965;DHT22;50120;53.250;8.702;2022-09-21T16:53:52;13.90;99.90
41965;DHT22;50120;53.250;8.702;2022-09-21T16:56:18;13.80;99.90
41965;DHT22;50120;53.250;8.702;2022-09-21T16:58:44;13.70;99.90
41965;DHT22;50120;53.250;8.702;2022-09-21T17:01:12;13.50;99.90
41965;DHT22;50120;53.250;8.702;2022-09-21T17:03:40;13.50;99.90
41965;DHT22;50120;53.250;8.702;2022-09-21T17:06:18;13.40;99.90
41965;DHT22;50120;53.250;8.702;2022-09-21T17:08:44;13.30;99.90
41965;DHT22;50120;53.250;8.702;2022-09-21T17:11:17;13.20;99.90
41965;DHT22;50120;53.250;8.702;2022-09-21T17:13:46;13.10;99.90
41965;DHT22;50120;53.250;8.702;2022-09-21T17:16:12;13.00;99.90
41965;DHT22;50120;53.250;8.702;2022-09-21T17:18:43;12.90;99.90
41965;DHT22;50120;53.250;8.702;2022-09-21T17:21:10;12.80;99.90
41965;DHT22;50120;53.250;8.702;2022-09-21T17:23:35;12.70;99.90
41965;DHT22;50120;53.250;8.702;2022-09-21T17:26:01;12.60;99.90
41965;DHT22;50120;53.250;8.702;2022-09-21T17:28:27;12.60;99.90
41965;DHT22;50120;53.250;8.702;2022-09-21T17:30:54;12.50;99.90
41965;DHT22;50120;53.250;8.702;2022-09-21T17:33:20;12.40;99.90
41965;DHT22;50120;53.250;8.702;2022-09-21T17:35:47;12.30;99.90
41965;DHT22;50120;53.250;8.702;2022-09-21T17:38:15;12.20;99.90
41965;DHT22;50120;53.250;8.702;2022-09-21T17:40:41;12.20;99.90
41965;DHT22;50120;53.250;8.702;2022-09-21T17:48:20;11.90;99.90
41965;DHT22;50120;53.250;8.702;2022-09-21T17:50:48;11.80;99.90
41965;DHT22;50120;53.250;8.702;2022-09-21T17:53:15;11.80;99.90
41965;DHT22;50120;53.250;8.702;2022-09-21T17:56:27;11.70;99.90
41965;DHT22;50120;53.250;8.702;2022-09-21T17:59:02;11.60;99.90
41965;DHT22;50120;53.250;8.702;2022-09-21T18:01:35;11.60;99.90
41965;DHT22;50120;53.250;8.702;2022-09-21T18:04:03;11.50;99.90
41965;DHT22;50120;53.250;8.702;2022-09-21T18:06:30;11.40;99.90
41965;DHT22;50120;53.250;8.702;2022-09-21T18:08:57;11.40;99.90
41965;DHT22;50120;53.250;8.702;2022-09-21T18:20:06;11.20;99.90
41965;DHT22;50120;53.250;8.702;2022-09-21T18:22:44;11.10;99.90
41965;DHT22;50120;53.250;8.702;2022-09-21T18:25:25;11.00;99.90
41965;DHT22;50120;53.250;8.702;2022-09-21T18:27:52;10.90;99.90
41965;DHT22;50120;53.250;8.702;2022-09-21T18:30:20;10.80;99.90
41965;DHT22;50120;53.250;8.702;2022-09-21T18:35:45;10.70;99.90
41965;DHT22;50120;53.250;8.702;2022-09-21T18:39:10;10.50;99.90
41965;DHT22;50120;53.250;8.702;2022-09-21T18:41:33;10.60;99.90
41965;DHT22;50120;53.250;8.702;2022-09-21T18:49:57;10.50;99.90
41965;DHT22;50120;53.250;8.702;2022-09-21T18:52:34;10.40;99.90
41965;DHT22;50120;53.250;8.702;2022-09-21T18:55:03;10.40;99.90
41965;DHT22;50120;53.250;8.702;2022-09-21T18:57:36;10.30;99.90
41965;DHT22;50120;53.250;8.702;2022-09-21T19:00:03;10.30;99.90
41965;DHT22;50120;53.250;8.702;2022-09-21T19:02:29;10.20;99.90
41965;DHT22;50120;53.250;8.702;2022-09-21T19:04:55;10.20;99.90
41965;DHT22;50120;53.250;8.702;2022-09-21T19:08:09;10.20;99.90
41965;DHT22;50120;53.250;8.702;2022-09-21T19:11:11;10.10;99.90
41965;DHT22;50120;53.250;8.702;2022-09-21T19:14:43;10.10;99.90
41965;DHT22;50120;53.250;8.702;2022-09-21T19:17:01;10.00;99.90
41965;DHT22;50120;53.250;8.702;2022-09-21T19:22:25;9.90;99.90
41965;DHT22;50120;53.250;8.702;2022-09-21T19:25:18;9.80;99.90
41965;DHT22;50120;53.250;8.702;2022-09-21T19:28:01;9.80;99.90
41965;DHT22;50120;53.250;8.702;2022-09-21T19:30:31;9.80;99.90
41965;DHT22;50120;53.250;8.702;2022-09-21T19:32:58;9.70;99.90
41965;DHT22;50120;53.250;8.702;2022-09-21T19:35:30;9.60;99.90
41965;DHT22;50120;53.250;8.702;2022-09-21T19:38:00;9.60;99.90
41965;DHT22;50120;53.250;8.702;2022-09-21T19:40:32;9.60;99.90
41965;DHT22;50120;53.250;8.702;2022-09-21T19:48:19;9.50;99.90
41965;DHT22;50120;53.250;8.702;2022-09-21T19:50:54;9.40;99.90
41965;DHT22;50120;53.250;8.702;2022-09-21T19:53:21;9.40;99.90
41965;DHT22;50120;53.250;8.702;2022-09-21T19:56:15;9.40;99.90
41965;DHT22;50120;53.250;8.702;2022-09-21T19:59:00;9.40;99.90
41965;DHT22;50120;53.250;8.702;2022-09-21T20:01:57;9.30;99.90
41965;DHT22;50120;53.250;8.702;2022-09-21T20:04:34;9.30;99.90